sensor_id;sensor_type;location;lat;lon;timestamp;temperature;humidity
69206;SHT30;56319;48.920;2.332;2023-04-24T00:01:49;19.47;43.16
69206;SHT30;56319;48.920;2.332;2023-04-24T00:04:15;19.48;43.11
69206;SHT30;56319;48.920;2.332;2023-04-24T00:06:42;19.44;43.09
69206;SHT30;56319;48.920;2.332;2023-04-24T00:09:09;19.45;43.06
69206;SHT30;56319;48.920;2.332;2023-04-24T00:11:36;19.42;43.07
69206;SHT30;56319;48.920;2.332;2023-04-24T00:14:02;19.42;43.06
69206;SHT30;56319;48.920;2.332;2023-04-24T00:16:28;19.47;43.04
69206;SHT30;56319;48.920;2.332;2023-04-24T00:18:54;19.42;43.06
69206;SHT30;56319;48.920;2.332;2023-04-24T00:21:20;19.44;43.00
69206;SHT30;56319;48.920;2.332;2023-04-24T00:23:45;19.41;43.05
69206;SHT30;56319;48.920;2.332;2023-04-24T00:26:11;19.42;43.03
69206;SHT30;56319;48.920;2.332;2023-04-24T00:28:37;19.39;42.99
69206;SHT30;56319;48.920;2.332;2023-04-24T00:31:02;19.42;42.96
69206;SHT30;56319;48.920;2.332;2023-04-24T00:33:28;19.36;43.03
69206;SHT30;56319;48.920;2.332;2023-04-24T00:35:53;19.41;42.99
69206;SHT30;56319;48.920;2.332;2023-04-24T00:38:19;19.38;42.95
69206;SHT30;56319;48.920;2.332;2023-04-24T00:40:45;19.38;42.95
69206;SHT30;56319;48.920;2.332;2023-04-24T00:43:10;19.38;42.96
69206;SHT30;56319;48.920;2.332;2023-04-24T00:45:37;19.38;43.00
69206;SHT30;56319;48.920;2.332;2023-04-24T00:48:03;19.35;42.96
69206;SHT30;56319;48.920;2.332;2023-04-24T00:50:29;19.36;42.95
69206;SHT30;56319;48.920;2.332;2023-04-24T00:52:56;19.36;42.96
69206;SHT30;56319;48.920;2.332;2023-04-24T00:55:21;19.35;42.88
69206;SHT30;56319;48.920;2.332;2023-04-24T00:57:48;19.32;42.86
69206;SHT30;56319;48.920;2.332;2023-04-24T01:00:15;19.34;42.88
69206;SHT30;56319;48.920;2.332;2023-04-24T01:02:43;19.31;42.88
69206;SHT30;56319;48.920;2.332;2023-04-24T01:05:12;19.34;42.88
69206;SHT30;56319;48.920;2.332;2023-04-24T01:07:39;19.32;42.86
69206;SHT30;56319;48.920;2.332;2023-04-24T01:10:07;19.31;42.91
69206;SHT30;56319;48.920;2.332;2023-04-24T01:12:33;19.30;42.86
69206;SHT30;56319;48.920;2.332;2023-04-24T01:14:59;19.30;42.87
69206;SHT30;56319;48.920;2.332;2023-04-24T01:17:24;19.31;42.84
69206;SHT30;56319;48.920;2.332;2023-04-24T01:19:50;19.27;42.80
69206;SHT30;56319;48.920;2.332;2023-04-24T01:22:19;19.27;42.82
69206;SHT30;56319;48.920;2.332;2023-04-24T01:24:46;19.27;42.83
69206;SHT30;56319;48.920;2.332;2023-04-24T01:27:12;19.27;42.81
69206;SHT30;56319;48.920;2.332;2023-04-24T01:29:38;19.28;42.84
69206;SHT30;56319;48.920;2.332;2023-04-24T01:32:04;19.27;42.85
69206;SHT30;56319;48.920;2.332;2023-04-24T01:34:30;19.25;42.78
69206;SHT30;56319;48.920;2.332;2023-04-24T01:36:56;19.27;42.80
69206;SHT30;56319;48.920;2.332;2023-04-24T01:39:22;19.24;42.84
69206;SHT30;56319;48.920;2.332;2023-04-24T01:41:49;19.25;42.78
69206;SHT30;56319;48.920;2.332;2023-04-24T01:44:16;19.25;42.77
69206;SHT30;56319;48.920;2.332;2023-04-24T01:46:42;19.23;42.80
69206;SHT30;56319;48.920;2.332;2023-04-24T01:49:08;19.23;42.79
69206;SHT30;56319;48.920;2.332;2023-04-24T01:51:33;19.24;42.79
69206;SHT30;56319;48.920;2.332;2023-04-24T01:53:59;19.20;42.79
69206;SHT30;56319;48.920;2.332;2023-04-24T01:56:25;19.21;42.74
69206;SHT30;56319;48.920;2.332;2023-04-24T01:58:52;19.23;42.72
69206;SHT30;56319;48.920;2.332;2023-04-24T02:01:19;19.20;42.76
69206;SHT30;56319;48.920;2.332;2023-04-24T02:03:45;19.18;42.76
69206;SHT30;56319;48.920;2.332;2023-04-24T02:06:11;19.20;42.79
69206;SHT30;56319;48.920;2.332;2023-04-24T02:08:36;19.18;42.79
69206;SHT30;56319;48.920;2.332;2023-04-24T02:11:02;19.20;42.76
69206;SHT30;56319;48.920;2.332;2023-04-24T02:13:28;19.17;42.75
69206;SHT30;56319;48.920;2.332;2023-04-24T02:15:53;19.18;42.75
69206;SHT30;56319;48.920;2.332;2023-04-24T02:18:19;19.17;42.74
69206;SHT30;56319;48.920;2.332;2023-04-24T02:20:45;19.18;42.73
69206;SHT30;56319;48.920;2.332;2023-04-24T02:23:11;19.16;42.74
69206;SHT30;56319;48.920;2.332;2023-04-24T02:25:36;19.18;42.73
69206;SHT30;56319;48.920;2.332;2023-04-24T02:28:02;19.17;42.73
69206;SHT30;56319;48.920;2.332;2023-04-24T02:30:28;19.16;42.67
69206;SHT30;56319;48.920;2.332;2023-04-24T02:32:53;19.14;42.70
69206;SHT30;56319;48.920;2.332;2023-04-24T02:35:19;19.13;42.66
69206;SHT30;56319;48.920;2.332;2023-04-24T02:37:45;19.13;42.66
69206;SHT30;56319;48.920;2.332;2023-04-24T02:40:11;19.13;42.69
69206;SHT30;56319;48.920;2.332;2023-04-24T02:42:36;19.13;42.68
69206;SHT30;56319;48.920;2.332;2023-04-24T02:45:02;19.13;42.69
69206;SHT30;56319;48.920;2.332;2023-04-24T02:47:27;19.11;42.66
69206;SHT30;56319;48.920;2.332;2023-04-24T02:49:53;19.14;42.73
69206;SHT30;56319;48.920;2.332;2023-04-24T02:52:18;19.10;42.70
69206;SHT30;56319;48.920;2.332;2023-04-24T02:54:44;19.11;42.72
69206;SHT30;56319;48.920;2.332;2023-04-24T02:57:09;19.11;42.71
69206;SHT30;56319;48.920;2.332;2023-04-24T02:59:35;19.10;42.64
69206;SHT30;56319;48.920;2.332;2023-04-24T03:02:00;19.10;42.73
69206;SHT30;56319;48.920;2.332;2023-04-24T03:04:26;19.08;42.70
69206;SHT30;56319;48.920;2.332;2023-04-24T03:06:52;19.07;42.72
69206;SHT30;56319;48.920;2.332;2023-04-24T03:09:21;19.10;42.70
69206;SHT30;56319;48.920;2.332;2023-04-24T03:11:46;19.10;42.71
69206;SHT30;56319;48.920;2.332;2023-04-24T03:14:12;19.07;42.70
69206;SHT30;56319;48.920;2.332;2023-04-24T03:16:37;19.07;42.70
69206;SHT30;56319;48.920;2.332;2023-04-24T03:19:03;19.06;42.72
69206;SHT30;56319;48.920;2.332;2023-04-24T03:21:29;19.07;42.71
69206;SHT30;56319;48.920;2.332;2023-04-24T03:23:54;19.03;42.72
69206;SHT30;56319;48.920;2.332;2023-04-24T03:26:20;19.06;42.71
69206;SHT30;56319;48.920;2.332;2023-04-24T03:28:45;19.03;42.73
69206;SHT30;56319;48.920;2.332;2023-04-24T03:31:11;19.02;42.69
69206;SHT30;56319;48.920;2.332;2023-04-24T03:33:36;19.00;42.71
69206;SHT30;56319;48.920;2.332;2023-04-24T03:36:02;19.03;42.70
69206;SHT30;56319;48.920;2.332;2023-04-24T03:38:28;19.03;42.67
69206;SHT30;56319;48.920;2.332;2023-04-24T03:40:53;19.03;42.68
69206;SHT30;56319;48.920;2.332;2023-04-24T03:43:19;19.00;42.71
69206;SHT30;56319;48.920;2.332;2023-04-24T03:45:44;19.02;42.68
69206;SHT30;56319;48.920;2.332;2023-04-24T03:48:10;19.00;42.68
69206;SHT30;56319;48.920;2.332;2023-04-24T03:50:36;19.02;42.69
69206;SHT30;56319;48.920;2.332;2023-04-24T03:53:01;19.00;42.69
69206;SHT30;56319;48.920;2.332;2023-04-24T03:55:27;18.97;42.69
69206;SHT30;56319;48.920;2.332;2023-04-24T03:57:52;19.00;42.70
69206;SHT30;56319;48.920;2.332;2023-04-24T04:00:18;18.99;42.68
69206;SHT30;56319;48.920;2.332;2023-04-24T04:02:43;18.99;42.68
69206;SHT30;56319;48.920;2.332;2023-04-24T04:05:09;19.00;42.70
69206;SHT30;56319;48.920;2.332;2023-04-24T04:07:34;18.97;42.70
69206;SHT30;56319;48.920;2.332;2023-04-24T04:10:00;18.97;42.71
69206;SHT30;56319;48.920;2.332;2023-04-24T04:12:26;18.96;42.66
69206;SHT30;56319;48.920;2.332;2023-04-24T04:14:51;18.96;42.70
69206;SHT30;56319;48.920;2.332;2023-04-24T04:17:16;18.95;42.69
69206;SHT30;56319;48.920;2.332;2023-04-24T04:19:42;18.93;42.73
69206;SHT30;56319;48.920;2.332;2023-04-24T04:22:08;18.95;42.74
69206;SHT30;56319;48.920;2.332;2023-04-24T04:24:33;18.93;42.69
69206;SHT30;56319;48.920;2.332;2023-04-24T04:27:04;18.95;42.70
69206;SHT30;56319;48.920;2.332;2023-04-24T04:29:30;18.92;42.70
69206;SHT30;56319;48.920;2.332;2023-04-24T04:31:57;18.95;42.69
69206;SHT30;56319;48.920;2.332;2023-04-24T04:34:22;18.93;42.69
69206;SHT30;56319;48.920;2.332;2023-04-24T04:36:48;18.90;42.70
69206;SHT30;56319;48.920;2.332;2023-04-24T04:39:14;18.92;42.72
69206;SHT30;56319;48.920;2.332;2023-04-24T04:41:40;18.90;42.72
69206;SHT30;56319;48.920;2.332;2023-04-24T04:44:06;18.92;42.72
69206;SHT30;56319;48.920;2.332;2023-04-24T04:46:34;18.92;42.72
69206;SHT30;56319;48.920;2.332;2023-04-24T04:49:01;18.90;42.71
69206;SHT30;56319;48.920;2.332;2023-04-24T04:51:27;18.90;42.73
69206;SHT30;56319;48.920;2.332;2023-04-24T04:53:53;18.90;42.73
69206;SHT30;56319;48.920;2.332;2023-04-24T04:56:18;18.89;42.76
69206;SHT30;56319;48.920;2.332;2023-04-24T04:58:44;18.89;42.77
69206;SHT30;56319;48.920;2.332;2023-04-24T05:01:10;18.88;42.76
69206;SHT30;56319;48.920;2.332;2023-04-24T05:03:35;18.89;42.73
69206;SHT30;56319;48.920;2.332;2023-04-24T05:06:02;18.89;42.78
69206;SHT30;56319;48.920;2.332;2023-04-24T05:08:27;18.88;42.75
69206;SHT30;56319;48.920;2.332;2023-04-24T05:10:53;18.85;42.73
69206;SHT30;56319;48.920;2.332;2023-04-24T05:13:20;18.85;42.74
69206;SHT30;56319;48.920;2.332;2023-04-24T05:15:45;18.86;42.78
69206;SHT30;56319;48.920;2.332;2023-04-24T05:18:11;18.86;42.83
69206;SHT30;56319;48.920;2.332;2023-04-24T05:20:36;18.85;42.79
69206;SHT30;56319;48.920;2.332;2023-04-24T05:23:02;18.85;42.75
69206;SHT30;56319;48.920;2.332;2023-04-24T05:25:27;18.85;42.80
69206;SHT30;56319;48.920;2.332;2023-04-24T05:27:53;18.85;42.80
69206;SHT30;56319;48.920;2.332;2023-04-24T05:30:19;18.86;42.80
69206;SHT30;56319;48.920;2.332;2023-04-24T05:32:45;18.83;42.83
69206;SHT30;56319;48.920;2.332;2023-04-24T05:35:10;18.83;42.80
69206;SHT30;56319;48.920;2.332;2023-04-24T05:37:36;18.82;42.82
69206;SHT30;56319;48.920;2.332;2023-04-24T05:40:01;18.83;42.79
69206;SHT30;56319;48.920;2.332;2023-04-24T05:42:28;18.81;42.84
69206;SHT30;56319;48.920;2.332;2023-04-24T05:44:54;18.82;42.80
69206;SHT30;56319;48.920;2.332;2023-04-24T05:47:20;18.82;42.83
69206;SHT30;56319;48.920;2.332;2023-04-24T05:49:47;18.82;42.81
69206;SHT30;56319;48.920;2.332;2023-04-24T05:52:13;18.82;42.86
69206;SHT30;56319;48.920;2.332;2023-04-24T05:54:38;18.79;42.85
69206;SHT30;56319;48.920;2.332;2023-04-24T05:57:04;18.81;42.84
69206;SHT30;56319;48.920;2.332;2023-04-24T05:59:34;18.81;42.86
69206;SHT30;56319;48.920;2.332;2023-04-24T06:01:59;18.81;42.84
69206;SHT30;56319;48.920;2.332;2023-04-24T06:04:25;18.81;42.86
69206;SHT30;56319;48.920;2.332;2023-04-24T06:06:51;18.79;42.88
69206;SHT30;56319;48.920;2.332;2023-04-24T06:09:22;18.81;42.86
69206;SHT30;56319;48.920;2.332;2023-04-24T06:11:47;18.82;42.87
69206;SHT30;56319;48.920;2.332;2023-04-24T06:14:13;18.79;42.89
69206;SHT30;56319;48.920;2.332;2023-04-24T06:16:41;18.77;42.90
69206;SHT30;56319;48.920;2.332;2023-04-24T06:19:07;18.77;42.89
69206;SHT30;56319;48.920;2.332;2023-04-24T06:21:32;18.77;42.90
69206;SHT30;56319;48.920;2.332;2023-04-24T06:23:58;18.77;42.91
69206;SHT30;56319;48.920;2.332;2023-04-24T06:26:23;18.77;42.92
69206;SHT30;56319;48.920;2.332;2023-04-24T06:28:50;18.79;42.94
69206;SHT30;56319;48.920;2.332;2023-04-24T06:31:16;18.79;42.95
69206;SHT30;56319;48.920;2.332;2023-04-24T06:33:42;18.79;42.90
69206;SHT30;56319;48.920;2.332;2023-04-24T06:36:08;18.76;42.96
69206;SHT30;56319;48.920;2.332;2023-04-24T06:38:34;18.76;42.93
69206;SHT30;56319;48.920;2.332;2023-04-24T06:40:59;18.77;42.96
69206;SHT30;56319;48.920;2.332;2023-04-24T06:43:25;18.77;42.91
69206;SHT30;56319;48.920;2.332;2023-04-24T06:45:51;18.77;42.92
69206;SHT30;56319;48.920;2.332;2023-04-24T06:48:16;18.79;42.95
69206;SHT30;56319;48.920;2.332;2023-04-24T06:50:42;18.79;42.95
69206;SHT30;56319;48.920;2.332;2023-04-24T06:53:07;18.77;42.98
69206;SHT30;56319;48.920;2.332;2023-04-24T06:55:33;18.77;42.96
69206;SHT30;56319;48.920;2.332;2023-04-24T06:57:59;18.81;42.94
69206;SHT30;56319;48.920;2.332;2023-04-24T07:00:24;18.82;43.00
69206;SHT30;56319;48.920;2.332;2023-04-24T07:02:50;18.79;42.99
69206;SHT30;56319;48.920;2.332;2023-04-24T07:05:15;18.82;43.03
69206;SHT30;56319;48.920;2.332;2023-04-24T07:07:46;18.79;43.02
69206;SHT30;56319;48.920;2.332;2023-04-24T07:10:12;18.79;43.02
69206;SHT30;56319;48.920;2.332;2023-04-24T07:12:38;18.79;42.99
69206;SHT30;56319;48.920;2.332;2023-04-24T07:15:05;18.81;42.97
69206;SHT30;56319;48.920;2.332;2023-04-24T07:17:31;18.81;43.03
69206;SHT30;56319;48.920;2.332;2023-04-24T07:19:56;18.82;42.99
69206;SHT30;56319;48.920;2.332;2023-04-24T07:22:22;18.82;43.04
69206;SHT30;56319;48.920;2.332;2023-04-24T07:24:48;18.82;43.02
69206;SHT30;56319;48.920;2.332;2023-04-24T07:27:13;18.81;43.06
69206;SHT30;56319;48.920;2.332;2023-04-24T07:29:40;18.77;43.06
69206;SHT30;56319;48.920;2.332;2023-04-24T07:32:06;18.82;43.07
69206;SHT30;56319;48.920;2.332;2023-04-24T07:34:31;18.81;43.07
69206;SHT30;56319;48.920;2.332;2023-04-24T07:36:57;18.82;43.09
69206;SHT30;56319;48.920;2.332;2023-04-24T07:39:23;18.81;43.03
69206;SHT30;56319;48.920;2.332;2023-04-24T07:41:48;18.82;43.05
69206;SHT30;56319;48.920;2.332;2023-04-24T07:44:14;18.82;43.05
69206;SHT30;56319;48.920;2.332;2023-04-24T07:46:40;18.83;43.08
69206;SHT30;56319;48.920;2.332;2023-04-24T07:49:05;18.81;43.10
69206;SHT30;56319;48.920;2.332;2023-04-24T07:51:31;18.85;43.02
69206;SHT30;56319;48.920;2.332;2023-04-24T07:53:59;18.82;43.07
69206;SHT30;56319;48.920;2.332;2023-04-24T07:56:25;18.83;43.11
69206;SHT30;56319;48.920;2.332;2023-04-24T07:58:51;18.83;43.13
69206;SHT30;56319;48.920;2.332;2023-04-24T08:01:16;18.85;43.07
69206;SHT30;56319;48.920;2.332;2023-04-24T08:03:42;18.82;43.12
69206;SHT30;56319;48.920;2.332;2023-04-24T08:06:07;18.86;43.11
69206;SHT30;56319;48.920;2.332;2023-04-24T08:08:33;18.88;43.13
69206;SHT30;56319;48.920;2.332;2023-04-24T08:10:59;18.86;43.11
69206;SHT30;56319;48.920;2.332;2023-04-24T08:13:24;18.88;43.09
69206;SHT30;56319;48.920;2.332;2023-04-24T08:15:50;18.89;43.09
69206;SHT30;56319;48.920;2.332;2023-04-24T08:18:15;18.90;43.11
69206;SHT30;56319;48.920;2.332;2023-04-24T08:20:41;18.89;43.15
69206;SHT30;56319;48.920;2.332;2023-04-24T08:23:07;18.89;43.11
69206;SHT30;56319;48.920;2.332;2023-04-24T08:25:34;18.95;43.06
69206;SHT30;56319;48.920;2.332;2023-04-24T08:28:02;18.95;43.12
69206;SHT30;56319;48.920;2.332;2023-04-24T08:30:29;18.93;43.09
69206;SHT30;56319;48.920;2.332;2023-04-24T08:32:55;18.93;43.12
69206;SHT30;56319;48.920;2.332;2023-04-24T08:35:20;18.95;43.12
69206;SHT30;56319;48.920;2.332;2023-04-24T08:37:46;18.95;43.12
69206;SHT30;56319;48.920;2.332;2023-04-24T08:40:13;18.95;43.09
69206;SHT30;56319;48.920;2.332;2023-04-24T08:42:42;18.93;43.06
69206;SHT30;56319;48.920;2.332;2023-04-24T08:45:10;18.96;43.06
69206;SHT30;56319;48.920;2.332;2023-04-24T08:47:38;18.97;43.08
69206;SHT30;56319;48.920;2.332;2023-04-24T08:50:04;18.96;43.15
69206;SHT30;56319;48.920;2.332;2023-04-24T08:52:32;18.96;43.14
69206;SHT30;56319;48.920;2.332;2023-04-24T08:55:00;18.96;43.16
69206;SHT30;56319;48.920;2.332;2023-04-24T08:57:25;18.95;43.12
69206;SHT30;56319;48.920;2.332;2023-04-24T08:59:53;18.99;43.18
69206;SHT30;56319;48.920;2.332;2023-04-24T09:02:18;18.97;43.17
69206;SHT30;56319;48.920;2.332;2023-04-24T09:04:45;18.99;43.17
69206;SHT30;56319;48.920;2.332;2023-04-24T09:07:14;18.99;43.20
69206;SHT30;56319;48.920;2.332;2023-04-24T09:09:41;18.99;43.20
69206;SHT30;56319;48.920;2.332;2023-04-24T09:12:07;19.02;43.22
69206;SHT30;56319;48.920;2.332;2023-04-24T09:14:34;19.02;43.29
69206;SHT30;56319;48.920;2.332;2023-04-24T09:17:02;18.97;43.22
69206;SHT30;56319;48.920;2.332;2023-04-24T09:19:27;19.02;43.25
69206;SHT30;56319;48.920;2.332;2023-04-24T09:21:53;19.02;43.33
69206;SHT30;56319;48.920;2.332;2023-04-24T09:24:21;19.02;43.29
69206;SHT30;56319;48.920;2.332;2023-04-24T09:26:49;19.00;43.38
69206;SHT30;56319;48.920;2.332;2023-04-24T09:29:16;19.00;43.35
69206;SHT30;56319;48.920;2.332;2023-04-24T09:31:42;19.00;43.45
69206;SHT30;56319;48.920;2.332;2023-04-24T09:34:08;19.02;43.45
69206;SHT30;56319;48.920;2.332;2023-04-24T09:36:36;19.00;43.57
69206;SHT30;56319;48.920;2.332;2023-04-24T09:39:06;19.02;43.63
69206;SHT30;56319;48.920;2.332;2023-04-24T09:41:33;19.02;43.61
69206;SHT30;56319;48.920;2.332;2023-04-24T09:44:21;19.02;43.68
69206;SHT30;56319;48.920;2.332;2023-04-24T09:46:53;19.02;43.80
69206;SHT30;56319;48.920;2.332;2023-04-24T09:49:26;19.04;43.77
69206;SHT30;56319;48.920;2.332;2023-04-24T09:51:52;19.06;43.91
69206;SHT30;56319;48.920;2.332;2023-04-24T09:54:19;19.02;44.35
69206;SHT30;56319;48.920;2.332;2023-04-24T09:56:48;18.93;44.76
69206;SHT30;56319;48.920;2.332;2023-04-24T09:59:17;18.86;45.12
69206;SHT30;56319;48.920;2.332;2023-04-24T10:01:43;18.79;45.30
69206;SHT30;56319;48.920;2.332;2023-04-24T10:04:20;18.72;45.45
69206;SHT30;56319;48.920;2.332;2023-04-24T10:06:47;18.66;45.55
69206;SHT30;56319;48.920;2.332;2023-04-24T10:09:14;18.65;45.71
69206;SHT30;56319;48.920;2.332;2023-04-24T10:11:43;18.59;45.61
69206;SHT30;56319;48.920;2.332;2023-04-24T10:14:14;18.51;45.43
69206;SHT30;56319;48.920;2.332;2023-04-24T10:16:40;18.43;45.35
69206;SHT30;56319;48.920;2.332;2023-04-24T10:19:07;18.36;45.50
69206;SHT30;56319;48.920;2.332;2023-04-24T10:21:33;18.33;45.80
69206;SHT30;56319;48.920;2.332;2023-04-24T10:23:59;18.30;45.94
69206;SHT30;56319;48.920;2.332;2023-04-24T10:26:28;18.31;45.87
69206;SHT30;56319;48.920;2.332;2023-04-24T10:28:57;18.33;45.79
69206;SHT30;56319;48.920;2.332;2023-04-24T10:31:24;18.33;45.77
69206;SHT30;56319;48.920;2.332;2023-04-24T10:33:51;18.37;45.66
69206;SHT30;56319;48.920;2.332;2023-04-24T10:36:17;18.41;45.62
69206;SHT30;56319;48.920;2.332;2023-04-24T10:38:46;18.44;45.54
69206;SHT30;56319;48.920;2.332;2023-04-24T10:41:13;18.45;45.48
69206;SHT30;56319;48.920;2.332;2023-04-24T10:43:45;18.51;45.42
69206;SHT30;56319;48.920;2.332;2023-04-24T10:46:16;18.52;45.31
69206;SHT30;56319;48.920;2.332;2023-04-24T10:48:52;18.56;45.24
69206;SHT30;56319;48.920;2.332;2023-04-24T10:51:22;18.58;45.23
69206;SHT30;56319;48.920;2.332;2023-04-24T10:53:49;18.64;45.27
69206;SHT30;56319;48.920;2.332;2023-04-24T10:56:15;18.68;45.12
69206;SHT30;56319;48.920;2.332;2023-04-24T10:58:44;18.75;45.09
69206;SHT30;56319;48.920;2.332;2023-04-24T11:01:30;18.72;45.02
69206;SHT30;56319;48.920;2.332;2023-04-24T11:03:59;18.81;45.00
69206;SHT30;56319;48.920;2.332;2023-04-24T11:06:29;18.83;44.92
69206;SHT30;56319;48.920;2.332;2023-04-24T11:09:16;18.88;44.80
69206;SHT30;56319;48.920;2.332;2023-04-24T11:11:46;18.89;44.73
69206;SHT30;56319;48.920;2.332;2023-04-24T11:14:14;18.95;44.70
69206;SHT30;56319;48.920;2.332;2023-04-24T11:16:44;19.00;44.63
69206;SHT30;56319;48.920;2.332;2023-04-24T11:19:25;18.99;44.59
69206;SHT30;56319;48.920;2.332;2023-04-24T11:22:01;19.03;44.50
69206;SHT30;56319;48.920;2.332;2023-04-24T11:24:39;19.04;44.49
69206;SHT30;56319;48.920;2.332;2023-04-24T11:30:04;19.11;44.29
69206;SHT30;56319;48.920;2.332;2023-04-24T11:32:37;19.14;44.25
69206;SHT30;56319;48.920;2.332;2023-04-24T11:35:05;19.18;44.20
69206;SHT30;56319;48.920;2.332;2023-04-24T11:37:36;19.23;44.17
69206;SHT30;56319;48.920;2.332;2023-04-24T11:40:03;19.23;44.09
69206;SHT30;56319;48.920;2.332;2023-04-24T11:42:50;19.28;44.01
69206;SHT30;56319;48.920;2.332;2023-04-24T11:45:20;19.32;43.95
69206;SHT30;56319;48.920;2.332;2023-04-24T11:47:46;19.32;43.87
69206;SHT30;56319;48.920;2.332;2023-04-24T11:50:14;19.35;43.81
69206;SHT30;56319;48.920;2.332;2023-04-24T11:52:42;19.34;43.79
69206;SHT30;56319;48.920;2.332;2023-04-24T11:55:24;19.36;43.82
69206;SHT30;56319;48.920;2.332;2023-04-24T11:57:54;19.41;43.76
69206;SHT30;56319;48.920;2.332;2023-04-24T12:00:24;19.42;43.69
69206;SHT30;56319;48.920;2.332;2023-04-24T12:02:51;19.44;43.65
69206;SHT30;56319;48.920;2.332;2023-04-24T12:05:24;19.48;43.60
69206;SHT30;56319;48.920;2.332;2023-04-24T12:07:51;19.51;43.48
69206;SHT30;56319;48.920;2.332;2023-04-24T12:10:37;19.55;43.40
69206;SHT30;56319;48.920;2.332;2023-04-24T12:13:02;19.55;43.35
69206;SHT30;56319;48.920;2.332;2023-04-24T12:15:28;19.59;43.32
69206;SHT30;56319;48.920;2.332;2023-04-24T12:17:55;19.58;43.29
69206;SHT30;56319;48.920;2.332;2023-04-24T12:20:27;19.59;43.29
69206;SHT30;56319;48.920;2.332;2023-04-24T12:22:55;19.54;43.29
69206;SHT30;56319;48.920;2.332;2023-04-24T12:25:24;19.55;43.25
69206;SHT30;56319;48.920;2.332;2023-04-24T12:27:55;19.54;43.29
69206;SHT30;56319;48.920;2.332;2023-04-24T12:30:41;19.52;43.18
69206;SHT30;56319;48.920;2.332;2023-04-24T12:33:07;19.52;43.26
69206;SHT30;56319;48.920;2.332;2023-04-24T12:35:33;19.51;43.20
69206;SHT30;56319;48.920;2.332;2023-04-24T12:38:22;19.50;43.19
69206;SHT30;56319;48.920;2.332;2023-04-24T12:40:47;19.52;43.13
69206;SHT30;56319;48.920;2.332;2023-04-24T12:43:17;19.51;43.09
69206;SHT30;56319;48.920;2.332;2023-04-24T12:45:43;19.51;43.02
69206;SHT30;56319;48.920;2.332;2023-04-24T12:48:10;19.51;43.05
69206;SHT30;56319;48.920;2.332;2023-04-24T12:50:36;19.48;43.01
69206;SHT30;56319;48.920;2.332;2023-04-24T12:53:01;19.50;42.97
69206;SHT30;56319;48.920;2.332;2023-04-24T12:55:27;19.50;42.94
69206;SHT30;56319;48.920;2.332;2023-04-24T12:57:53;19.50;42.92
69206;SHT30;56319;48.920;2.332;2023-04-24T13:00:20;19.50;42.91
69206;SHT30;56319;48.920;2.332;2023-04-24T13:02:46;19.48;42.84
69206;SHT30;56319;48.920;2.332;2023-04-24T13:05:12;19.48;42.80
69206;SHT30;56319;48.920;2.332;2023-04-24T13:07:39;19.47;42.74
69206;SHT30;56319;48.920;2.332;2023-04-24T13:10:05;19.48;42.75
69206;SHT30;56319;48.920;2.332;2023-04-24T13:12:32;19.48;42.72
69206;SHT30;56319;48.920;2.332;2023-04-24T13:14:58;19.47;42.72
69206;SHT30;56319;48.920;2.332;2023-04-24T13:17:24;19.48;42.69
69206;SHT30;56319;48.920;2.332;2023-04-24T13:19:50;19.50;42.68
69206;SHT30;56319;48.920;2.332;2023-04-24T13:22:17;19.51;42.52
69206;SHT30;56319;48.920;2.332;2023-04-24T13:24:44;19.50;42.51
69206;SHT30;56319;48.920;2.332;2023-04-24T13:27:10;19.54;42.51
69206;SHT30;56319;48.920;2.332;2023-04-24T13:29:36;19.52;42.52
69206;SHT30;56319;48.920;2.332;2023-04-24T13:32:02;19.51;42.44
69206;SHT30;56319;48.920;2.332;2023-04-24T13:34:27;19.50;42.50
69206;SHT30;56319;48.920;2.332;2023-04-24T13:36:55;19.50;42.48
69206;SHT30;56319;48.920;2.332;2023-04-24T13:39:24;19.48;42.47
69206;SHT30;56319;48.920;2.332;2023-04-24T13:41:50;19.48;42.38
69206;SHT30;56319;48.920;2.332;2023-04-24T13:44:17;19.50;42.40
69206;SHT30;56319;48.920;2.332;2023-04-24T13:46:44;19.51;42.35
69206;SHT30;56319;48.920;2.332;2023-04-24T13:49:11;19.52;42.28
69206;SHT30;56319;48.920;2.332;2023-04-24T13:51:37;19.51;42.16
69206;SHT30;56319;48.920;2.332;2023-04-24T13:54:02;19.57;42.14
69206;SHT30;56319;48.920;2.332;2023-04-24T13:56:28;19.58;42.05
69206;SHT30;56319;48.920;2.332;2023-04-24T13:58:54;19.59;42.03
69206;SHT30;56319;48.920;2.332;2023-04-24T14:01:20;19.59;41.98
69206;SHT30;56319;48.920;2.332;2023-04-24T14:03:49;19.63;41.89
69206;SHT30;56319;48.920;2.332;2023-04-24T14:06:15;19.69;41.83
69206;SHT30;56319;48.920;2.332;2023-04-24T14:08:41;19.72;41.71
69206;SHT30;56319;48.920;2.332;2023-04-24T14:11:06;19.73;41.66
69206;SHT30;56319;48.920;2.332;2023-04-24T14:13:32;19.78;41.58
69206;SHT30;56319;48.920;2.332;2023-04-24T14:15:58;19.78;41.57
69206;SHT30;56319;48.920;2.332;2023-04-24T14:18:23;19.79;41.44
69206;SHT30;56319;48.920;2.332;2023-04-24T14:20:49;19.85;41.36
69206;SHT30;56319;48.920;2.332;2023-04-24T14:23:15;19.86;41.32
69206;SHT30;56319;48.920;2.332;2023-04-24T14:25:41;19.87;41.32
69206;SHT30;56319;48.920;2.332;2023-04-24T14:28:06;19.87;41.24
69206;SHT30;56319;48.920;2.332;2023-04-24T14:30:32;19.92;41.19
69206;SHT30;56319;48.920;2.332;2023-04-24T14:32:58;19.93;41.09
69206;SHT30;56319;48.920;2.332;2023-04-24T14:35:23;19.97;41.06
69206;SHT30;56319;48.920;2.332;2023-04-24T14:37:49;19.97;41.00
69206;SHT30;56319;48.920;2.332;2023-04-24T14:40:15;20.01;40.97
69206;SHT30;56319;48.920;2.332;2023-04-24T14:42:40;20.03;40.92
69206;SHT30;56319;48.920;2.332;2023-04-24T14:47:31;20.14;40.82
69206;SHT30;56319;48.920;2.332;2023-04-24T14:49:58;20.17;40.70
69206;SHT30;56319;48.920;2.332;2023-04-24T14:52:23;20.20;40.69
69206;SHT30;56319;48.920;2.332;2023-04-24T14:54:49;20.17;40.61
69206;SHT30;56319;48.920;2.332;2023-04-24T14:57:14;20.23;40.56
69206;SHT30;56319;48.920;2.332;2023-04-24T14:59:40;20.20;40.49
69206;SHT30;56319;48.920;2.332;2023-04-24T15:02:06;20.21;40.53
69206;SHT30;56319;48.920;2.332;2023-04-24T15:04:31;20.21;40.49
69206;SHT30;56319;48.920;2.332;2023-04-24T15:06:57;20.20;40.52
69206;SHT30;56319;48.920;2.332;2023-04-24T15:09:23;20.17;40.49
69206;SHT30;56319;48.920;2.332;2023-04-24T15:11:50;20.16;40.49
69206;SHT30;56319;48.920;2.332;2023-04-24T15:14:17;20.13;40.46
69206;SHT30;56319;48.920;2.332;2023-04-24T15:16:43;20.10;40.48
69206;SHT30;56319;48.920;2.332;2023-04-24T15:19:09;20.10;40.51
69206;SHT30;56319;48.920;2.332;2023-04-24T15:21:36;20.10;40.48
69206;SHT30;56319;48.920;2.332;2023-04-24T15:24:03;20.06;40.46
69206;SHT30;56319;48.920;2.332;2023-04-24T15:26:29;20.06;40.51
69206;SHT30;56319;48.920;2.332;2023-04-24T15:28:55;20.03;40.47
69206;SHT30;56319;48.920;2.332;2023-04-24T15:31:20;20.03;40.49
69206;SHT30;56319;48.920;2.332;2023-04-24T15:33:48;20.00;40.46